Time;durP1;ratioP1;P1;durP2;ratioP2;P2;SDS_P1;SDS_P2;PMS_P1;PMS_P2;Temp;Humidity;BMP_temperature;BMP_pressure;BME280_temperature;BME280_humidity;BME280_pressure;Samples;Min_cycle;Max_cycle;Signal;HPM_P1;HPM_P2
2022/08/26 00:00:29;;;;;;;21.17;12.90;;;18.60;49.00;;;;;;4982297;28;46542;-68
2022/08/26 00:02:55;;;;;;;28.80;14.10;;;18.60;49.10;;;;;;4981424;28;46589;-67
2022/08/26 00:05:22;;;;;;;27.67;13.40;;;;;;;;;;4978382;28;46371;-69
2022/08/26 00:07:48;;;;;;;30.10;13.37;;;;;;;;;;4979889;28;46612;-68
2022/08/26 00:10:14;;;;;;;25.13;12.60;;;18.60;49.60;;;;;;4981793;28;46787;-68
2022/08/26 00:12:41;;;;;;;25.50;13.10;;;;;;;;;;4980238;28;46475;-68
2022/08/26 00:15:09;;;;;;;29.40;13.47;;;18.50;49.80;;;;;;4981290;28;46625;-67
2022/08/26 00:17:35;;;;;;;22.50;13.87;;;18.40;52.40;;;;;;4996107;28;46180;-67
2022/08/26 00:20:02;;;;;;;26.83;12.87;;;18.40;51.80;;;;;;4982130;28;46331;-67
2022/08/26 00:22:28;;;;;;;36.90;16.77;;;18.50;52.40;;;;;;4981578;28;46440;-67
2022/08/26 00:24:53;;;;;;;29.97;15.80;;;18.60;53.40;;;;;;4980520;28;46554;-68
2022/08/26 00:27:19;;;;;;;29.87;15.23;;;;;;;;;;4980698;28;46613;-68
2022/08/26 00:29:45;;;;;;;30.27;15.03;;;;;;;;;;4981871;28;46448;-68
2022/08/26 00:32:11;;;;;;;29.17;14.57;;;;;;;;;;4980084;28;45859;-68
2022/08/26 00:34:37;;;;;;;33.77;16.20;;;;;;;;;;4981358;28;47225;-68
2022/08/26 00:37:04;;;;;;;34.03;15.87;;;18.40;52.70;;;;;;4981223;28;46431;-68
2022/08/26 00:39:30;;;;;;;28.37;15.07;;;18.20;54.60;;;;;;4980939;28;46273;-68
2022/08/26 00:41:56;;;;;;;30.90;13.70;;;18.40;54.70;;;;;;4981638;28;45879;-69
2022/08/26 00:44:21;;;;;;;29.87;13.63;;;18.40;52.20;;;;;;4980147;28;46071;-68
2022/08/26 00:46:55;;;;;;;24.80;13.23;;;18.30;54.90;;;;;;4981106;28;46399;-68
2022/08/26 00:49:36;;;;;;;32.80;14.63;;;18.30;52.30;;;;;;4981076;28;46393;-68
2022/08/26 00:52:05;;;;;;;24.17;13.63;;;17.90;55.20;;;;;;4979436;28;46457;-68
2022/08/26 00:54:34;;;;;;;26.30;12.77;;;18.10;53.10;;;;;;4980633;28;46282;-69
2022/08/26 00:57:05;;;;;;;21.00;12.53;;;18.20;56.60;;;;;;4977789;28;45828;-67
2022/08/26 00:59:31;;;;;;;30.03;14.90;;;18.10;54.90;;;;;;4980530;28;45896;-67
2022/08/26 01:01:57;;;;;;;30.70;15.10;;;18.00;53.50;;;;;;4980459;28;45828;-68
2022/08/26 01:04:23;;;;;;;29.90;15.50;;;18.00;56.60;;;;;;4982475;28;46439;-68
2022/08/26 01:06:51;;;;;;;31.63;16.00;;;17.90;57.10;;;;;;4980650;28;46323;-69
2022/08/26 01:09:19;;;;;;;33.03;16.00;;;17.70;57.10;;;;;;4980739;28;46331;-67
2022/08/26 01:11:48;;;;;;;32.37;17.50;;;17.90;54.10;;;;;;4978715;28;46597;-66
2022/08/26 01:14:15;;;;;;;44.60;16.30;;;18.10;57.80;;;;;;4979102;28;46432;-67
2022/08/26 01:16:41;;;;;;;37.63;16.93;;;18.10;54.50;;;;;;4980426;28;46668;-68
2022/08/26 01:19:29;;;;;;;22.43;14.00;;;17.90;54.70;;;;;;4980750;28;46397;-67
2022/08/26 01:22:08;;;;;;;23.87;13.00;;;17.80;54.70;;;;;;4977776;28;46555;-68
2022/08/26 01:24:35;;;;;;;22.27;13.40;;;18.00;58.60;;;;;;4980267;28;46707;-68
2022/08/26 01:27:04;;;;;;;24.00;14.33;;;17.80;58.80;;;;;;4980407;28;46524;-68
2022/08/26 01:29:32;;;;;;;24.60;14.90;;;17.60;55.00;;;;;;4980141;28;46224;-67
2022/08/26 01:31:58;;;;;;;28.17;13.00;;;;;;;;;;4980820;28;46635;-67
2022/08/26 01:34:29;;;;;;;26.33;15.33;;;17.50;55.20;;;;;;4980885;28;46456;-69
2022/08/26 01:37:08;;;;;;;32.10;14.27;;;17.40;56.00;;;;;;4980173;28;46465;-68
2022/08/26 01:39:35;;;;;;;28.40;14.27;;;17.40;55.50;;;;;;4980241;28;46450;-68
2022/08/26 01:42:04;;;;;;;23.97;13.97;;;17.40;55.70;;;;;;4980015;28;46371;-67
2022/08/26 01:44:37;;;;;;;23.20;13.30;;;17.40;56.00;;;;;;4977720;28;47442;-68
2022/08/26 01:47:04;;;;;;;21.07;14.27;;;17.30;55.90;;;;;;4978947;28;46337;-67
2022/08/26 01:49:31;;;;;;;22.20;13.10;;;17.20;59.90;;;;;;4980234;28;46399;-68
2022/08/26 01:51:57;;;;;;;27.53;13.00;;;17.40;60.00;;;;;;4976971;28;46610;-67
2022/08/26 01:54:24;;;;;;;19.10;12.93;;;17.30;56.10;;;;;;4979329;28;46443;-67
2022/08/26 01:56:51;;;;;;;20.70;14.10;;;17.30;56.20;;;;;;4979210;28;46304;-67
2022/08/26 01:59:19;;;;;;;25.30;14.83;;;17.30;58.20;;;;;;4978387;28;46356;-68
2022/08/26 02:01:45;;;;;;;28.13;14.50;;;;;;;;;;4977695;28;46478;-67
2022/08/26 02:04:19;;;;;;;32.43;14.20;;;17.30;56.50;;;;;;4979228;28;46615;-69
2022/08/26 02:06:46;;;;;;;27.53;13.97;;;17.30;57.50;;;;;;4976124;28;46376;-69
2022/08/26 02:09:12;;;;;;;25.33;14.20;;;;;;;;;;4976637;28;46431;-68
2022/08/26 02:11:38;;;;;;;23.17;12.73;;;;;;;;;;4978550;28;46444;-68
2022/08/26 02:14:20;;;;;;;29.27;13.97;;;17.10;57.30;;;;;;4976889;28;46608;-68
2022/08/26 02:16:49;;;;;;;25.87;14.50;;;16.90;57.40;;;;;;4978652;28;46468;-68
2022/08/26 02:19:38;;;;;;;30.13;14.80;;;17.00;57.10;;;;;;4978518;28;46515;-67
2022/08/26 02:22:10;;;;;;;24.00;12.93;;;17.00;57.10;;;;;;4977160;28;46360;-69
2022/08/26 02:25:09;;;;;;;23.07;13.47;;;16.90;57.00;;;;;;4977727;28;46493;-68
2022/08/26 02:27:36;;;;;;;25.43;14.80;;;;;;;;;;4976207;28;46541;-67
2022/08/26 02:30:07;;;;;;;24.10;15.20;;;16.90;59.70;;;;;;4981665;28;46454;-67
2022/08/26 02:32:32;;;;;;;24.50;15.00;;;16.90;57.90;;;;;;4979610;28;46650;-69
2022/08/26 02:34:58;;;;;;;24.33;14.40;;;17.00;57.10;;;;;;4981469;28;46332;-68
2022/08/26 02:37:28;;;;;;;28.10;15.13;;;17.10;57.10;;;;;;4981264;28;46472;-68
2022/08/26 02:39:54;;;;;;;21.90;14.37;;;17.10;59.60;;;;;;4975694;28;45941;-68
2022/08/26 02:42:20;;;;;;;29.70;13.43;;;;;;;;;;4980873;28;46479;-68
2022/08/26 02:44:47;;;;;;;24.37;13.67;;;;;;;;;;4981632;28;46860;-68
2022/08/26 02:47:13;;;;;;;19.47;13.50;;;16.70;59.80;;;;;;4981546;28;45833;-68
2022/08/26 02:49:41;;;;;;;21.90;13.57;;;17.20;58.60;;;;;;4980353;28;46658;-69
2022/08/26 02:52:08;;;;;;;22.03;14.10;;;;;;;;;;4980620;28;46506;-67
2022/08/26 02:54:33;;;;;;;25.30;13.00;;;17.00;58.90;;;;;;4982062;28;46528;-67
2022/08/26 02:57:00;;;;;;;26.20;14.10;;;;;;;;;;4982594;28;46470;-68
2022/08/26 02:59:25;;;;;;;25.07;13.67;;;17.40;60.30;;;;;;4982250;28;45895;-67
2022/08/26 03:01:51;;;;;;;35.03;11.80;;;17.20;57.90;;;;;;4982595;28;45933;-67
2022/08/26 03:04:17;;;;;;;21.70;13.57;;;;;;;;;;4980098;28;47655;-68
2022/08/26 03:06:43;;;;;;;24.27;12.67;;;17.20;56.60;;;;;;4981503;28;46521;-68
2022/08/26 03:09:09;;;;;;;22.57;13.33;;;;;;;;;;4982337;28;46360;-68
2022/08/26 03:11:35;;;;;;;20.90;13.13;;;17.30;57.20;;;;;;4980790;28;46693;-68
2022/08/26 03:14:02;;;;;;;27.87;13.13;;;17.30;57.70;;;;;;4994208;28;48643;-68
2022/08/26 03:16:31;;;;;;;22.20;13.50;;;17.30;56.70;;;;;;4982861;28;46416;-69
2022/08/26 03:18:57;;;;;;;20.37;12.23;;;17.50;60.20;;;;;;4982771;28;46464;-68
2022/08/26 03:21:23;;;;;;;26.77;13.50;;;;;;;;;;4981965;28;46578;-68
2022/08/26 03:23:49;;;;;;;25.20;12.90;;;17.60;60.80;;;;;;4981985;28;48201;-68
2022/08/26 03:26:15;;;;;;;17.57;11.93;;;17.30;56.60;;;;;;4983143;28;45858;-68
2022/08/26 03:31:26;;;;;;;26.20;11.93;;;;;;;;;;4980791;28;46404;-68
2022/08/26 03:33:52;;;;;;;26.83;12.37;;;17.20;60.50;;;;;;4991699;28;48199;-68
2022/08/26 03:36:18;;;;;;;26.60;13.93;;;17.30;57.40;;;;;;4982344;28;45813;-68
2022/08/26 03:38:44;;;;;;;25.33;12.87;;;;;;;;;;4979225;28;46440;-68
2022/08/26 03:41:11;;;;;;;24.20;13.30;;;;;;;;;;4980515;28;46549;-68
2022/08/26 03:43:37;;;;;;;26.17;11.73;;;17.40;60.20;;;;;;4981408;28;46439;-67
2022/08/26 03:46:08;;;;;;;21.97;13.53;;;17.30;57.20;;;;;;4986960;28;46418;-67
2022/08/26 03:48:33;;;;;;;22.77;12.33;;;17.40;59.40;;;;;;4981097;28;46516;-68
2022/08/26 03:51:00;;;;;;;21.30;12.57;;;17.60;60.50;;;;;;4982159;28;46600;-67
2022/08/26 03:53:26;;;;;;;24.50;14.70;;;;;;;;;;4981772;28;46454;-68
2022/08/26 03:55:52;;;;;;;27.20;14.27;;;17.30;60.10;;;;;;4982183;28;46367;-67
2022/08/26 03:58:19;;;;;;;27.90;13.93;;;17.40;60.10;;;;;;4981028;28;46678;-68
2022/08/26 04:00:45;;;;;;;20.43;13.73;;;;;;;;;;4982058;28;46447;-67
2022/08/26 04:03:13;;;;;;;35.33;13.83;;;17.40;60.20;;;;;;4981848;28;46623;-67
2022/08/26 04:05:39;;;;;;;20.73;13.20;;;17.40;60.40;;;;;;4980337;28;46446;-68
2022/08/26 04:08:05;;;;;;;25.63;13.60;;;17.40;60.10;;;;;;4980549;28;46359;-69
2022/08/26 04:10:31;;;;;;;33.20;14.27;;;17.50;56.40;;;;;;4982002;28;46569;-68
2022/08/26 04:12:57;;;;;;;28.17;13.63;;;17.30;56.60;;;;;;4981399;28;46183;-69
2022/08/26 04:15:23;;;;;;;24.10;12.43;;;17.60;59.80;;;;;;4982157;28;45797;-68
2022/08/26 04:17:49;;;;;;;23.50;13.10;;;17.80;59.30;;;;;;4979209;28;46407;-68
2022/08/26 04:20:17;;;;;;;19.73;12.27;;;17.50;56.60;;;;;;4981316;28;46395;-68
2022/08/26 04:22:44;;;;;;;23.83;13.30;;;17.50;57.30;;;;;;4980359;28;46586;-68
2022/08/26 04:25:10;;;;;;;22.23;13.47;;;17.50;59.80;;;;;;4981878;28;45837;-68
2022/08/26 04:27:36;;;;;;;22.03;13.47;;;;;;;;;;4980410;28;46456;-67
2022/08/26 04:30:03;;;;;;;21.00;12.73;;;17.80;59.10;;;;;;4981506;28;46320;-68
2022/08/26 04:32:29;;;;;;;28.67;14.13;;;17.50;59.60;;;;;;4981049;28;46616;-68
2022/08/26 04:34:55;;;;;;;20.07;13.37;;;17.30;60.80;;;;;;4980102;28;46363;-67
2022/08/26 04:37:20;;;;;;;28.47;13.87;;;17.20;60.40;;;;;;4983288;28;46407;-67
2022/08/26 04:39:51;;;;;;;31.27;11.50;;;17.40;57.50;;;;;;4980413;28;46472;-67
2022/08/26 04:42:17;;;;;;;25.87;13.27;;;;;;;;;;4979653;28;46493;-68
2022/08/26 04:44:43;;;;;;;22.97;12.27;;;;;;;;;;4981152;28;46616;-68
2022/08/26 04:47:09;;;;;;;29.97;12.10;;;;;;;;;;4981761;28;46374;-67
2022/08/26 04:49:34;;;;;;;18.30;11.50;;;17.00;61.00;;;;;;4996027;28;46432;-67
2022/08/26 04:52:00;;;;;;;20.87;12.47;;;17.40;59.10;;;;;;4980359;28;46722;-68
2022/08/26 04:54:26;;;;;;;28.00;11.97;;;;;;;;;;4980753;28;46766;-67
2022/08/26 04:56:52;;;;;;;28.97;12.20;;;;;;;;;;4980421;28;46180;-68
2022/08/26 04:59:18;;;;;;;24.83;11.57;;;;;;;;;;4979651;28;45977;-67
2022/08/26 05:01:56;;;;;;;16.80;10.63;;;17.70;57.20;;;;;;4981044;28;46999;-68
2022/08/26 05:04:21;;;;;;;19.90;10.17;;;17.80;59.30;;;;;;4980119;28;46362;-67
2022/08/26 05:06:48;;;;;;;22.57;12.17;;;17.90;56.20;;;;;;4981172;28;46537;-68
2022/08/26 05:09:14;;;;;;;23.30;11.87;;;17.90;59.80;;;;;;4980526;28;46597;-67
2022/08/26 05:11:40;;;;;;;19.90;11.57;;;18.00;59.50;;;;;;4979226;28;48903;-67
2022/08/26 05:14:05;;;;;;;18.30;12.20;;;18.20;59.20;;;;;;4981063;28;46395;-67
2022/08/26 05:16:31;;;;;;;25.93;12.10;;;;;;;;;;4979579;28;45924;-67
2022/08/26 05:18:57;;;;;;;19.40;11.90;;;;;;;;;;4980864;28;46458;-67
2022/08/26 05:21:26;;;;;;;22.50;11.00;;;18.50;58.30;;;;;;4979642;28;47091;-67
2022/08/26 05:23:53;;;;;;;26.90;11.47;;;18.60;55.40;;;;;;4980123;28;46504;-68
2022/08/26 05:26:20;;;;;;;19.60;11.93;;;18.50;57.80;;;;;;4979181;28;46391;-67
2022/08/26 05:28:46;;;;;;;23.40;11.00;;;;;;;;;;4979938;28;46296;-66
2022/08/26 05:31:17;;;;;;;16.10;10.57;;;19.50;58.30;;;;;;4980439;28;47401;-68
2022/08/26 05:33:43;;;;;;;19.00;10.30;;;19.50;54.00;;;;;;4980542;28;46420;-68
2022/08/26 05:36:15;;;;;;;17.90;10.20;;;19.70;53.80;;;;;;4978608;28;46519;-68
2022/08/26 05:38:41;;;;;;;17.23;9.23;;;19.90;53.30;;;;;;4980150;28;46361;-68
2022/08/26 05:41:20;;;;;;;22.70;9.63;;;20.20;52.40;;;;;;4978702;28;46109;-67
2022/08/26 05:43:46;;;;;;;21.63;9.70;;;20.40;52.00;;;;;;4977003;28;46418;-67
2022/08/26 05:46:15;;;;;;;14.50;8.37;;;20.70;54.20;;;;;;4977812;28;46416;-67
2022/08/26 05:48:41;;;;;;;13.73;9.13;;;20.80;51.50;;;;;;4976096;28;46381;-68
2022/08/26 05:51:08;;;;;;;22.20;10.07;;;20.40;52.80;;;;;;4976099;28;46074;-69
2022/08/26 05:53:35;;;;;;;14.50;8.90;;;20.50;50.50;;;;;;4978152;28;45814;-68
2022/08/26 05:56:03;;;;;;;15.40;9.63;;;20.30;49.90;;;;;;4977600;28;46334;-69
2022/08/26 05:58:29;;;;;;;13.20;8.83;;;;;;;;;;4976041;28;46588;-67
2022/08/26 06:00:59;;;;;;;15.83;8.73;;;20.50;49.10;;;;;;4978245;28;47048;-67
2022/08/26 06:03:25;;;;;;;16.33;8.90;;;20.50;49.10;;;;;;4979499;28;46344;-69
2022/08/26 06:05:51;;;;;;;23.60;8.07;;;;;;;;;;4982312;28;46459;-69
2022/08/26 06:08:19;;;;;;;15.33;9.30;;;;;;;;;;4976859;28;46529;-67
2022/08/26 06:10:59;;;;;;;14.27;9.10;;;20.50;48.40;;;;;;4980221;28;46463;-68
2022/08/26 06:13:26;;;;;;;17.43;8.63;;;20.50;48.30;;;;;;4979783;28;46436;-70
2022/08/26 06:15:53;;;;;;;46.83;20.70;;;20.70;49.60;;;;;;4980725;28;46445;-68
2022/08/26 06:18:26;;;;;;;26.87;14.13;;;20.80;50.10;;;;;;4980716;28;46375;-68
2022/08/26 06:20:53;;;;;;;121.00;59.00;;;;;;;;;;4976709;28;47014;-69
2022/08/26 06:26:04;;;;;;;24.97;12.30;;;20.50;49.50;;;;;;4980907;28;46425;-68
2022/08/26 06:28:31;;;;;;;18.47;12.03;;;20.50;49.30;;;;;;4979137;28;45868;-69
2022/08/26 06:30:57;;;;;;;19.57;10.87;;;20.60;49.00;;;;;;4980885;28;46946;-70
2022/08/26 06:33:24;;;;;;;11.33;8.43;;;20.90;47.50;;;;;;4981331;28;46423;-70
2022/08/26 06:35:52;;;;;;;13.40;8.80;;;20.80;48.10;;;;;;4980014;28;46312;-70
2022/08/26 06:38:18;;;;;;;16.70;8.90;;;21.40;48.30;;;;;;4979833;28;46826;-69
2022/08/26 06:40:49;;;;;;;13.83;7.87;;;21.10;46.70;;;;;;4978339;28;47244;-71
2022/08/26 06:43:16;;;;;;;14.70;7.50;;;21.30;47.60;;;;;;4981179;28;46686;-69
2022/08/26 06:45:46;;;;;;;9.83;7.30;;;21.60;46.70;;;;;;4980610;28;46501;-69
2022/08/26 06:48:13;;;;;;;14.67;7.73;;;21.50;45.10;;;;;;4979588;28;46352;-70
2022/08/26 06:50:39;;;;;;;13.80;7.80;;;22.00;46.10;;;;;;4981369;28;45995;-70
2022/08/26 06:53:06;;;;;;;19.20;7.60;;;;;;;;;;4981098;28;46517;-69
2022/08/26 06:55:33;;;;;;;11.63;6.90;;;21.50;46.10;;;;;;4981997;28;45920;-67
2022/08/26 06:57:59;;;;;;;12.50;7.80;;;;;;;;;;4979652;28;46467;-68
2022/08/26 07:00:24;;;;;;;15.30;8.50;;;22.00;43.50;;;;;;4980467;28;47201;-67
2022/08/26 07:02:50;;;;;;;13.30;7.23;;;22.10;45.60;;;;;;4983546;28;46564;-67
2022/08/26 07:05:16;;;;;;;14.53;7.40;;;21.90;43.00;;;;;;4981962;28;46348;-66
2022/08/26 07:07:41;;;;;;;17.73;7.83;;;22.00;43.40;;;;;;4981137;28;46753;-68
2022/08/26 07:10:07;;;;;;;12.57;7.67;;;22.00;42.60;;;;;;4981337;28;46417;-67
2022/08/26 07:12:35;;;;;;;10.67;7.37;;;22.10;42.50;;;;;;4982300;28;46458;-68
2022/08/26 07:15:00;;;;;;;12.90;8.30;;;22.40;45.00;;;;;;4982618;28;46400;-69
2022/08/26 07:17:28;;;;;;;10.93;7.30;;;;;;;;;;4984345;28;46346;-69
2022/08/26 07:19:54;;;;;;;19.70;7.30;;;;;;;;;;4980874;28;47147;-68
2022/08/26 07:22:19;;;;;;;14.33;7.30;;;22.40;43.70;;;;;;4980338;28;46525;-68
2022/08/26 07:24:45;;;;;;;13.97;7.47;;;22.50;41.00;;;;;;4980890;28;46418;-68
2022/08/26 07:27:14;;;;;;;14.07;7.53;;;22.60;40.30;;;;;;4979184;28;46798;-68
2022/08/26 07:29:43;;;;;;;13.30;6.93;;;22.80;40.00;;;;;;4980643;28;46261;-69
2022/08/26 07:32:12;;;;;;;16.10;7.50;;;22.90;39.60;;;;;;4980401;28;46389;-70
2022/08/26 07:34:39;;;;;;;19.13;8.37;;;23.10;39.20;;;;;;4981403;28;46487;-69
2022/08/26 07:37:04;;;;;;;11.13;7.87;;;;;;;;;;4981622;28;46530;-70
2022/08/26 07:39:31;;;;;;;16.97;8.00;;;23.60;41.20;;;;;;4986520;28;46376;-68
2022/08/26 07:41:57;;;;;;;13.10;8.13;;;23.40;40.30;;;;;;4980279;28;46356;-69
2022/08/26 07:44:23;;;;;;;17.40;8.00;;;23.60;38.00;;;;;;4982314;28;46538;-69
2022/08/26 07:46:49;;;;;;;15.90;8.17;;;23.80;37.60;;;;;;4981010;28;46336;-69
2022/08/26 07:49:16;;;;;;;14.00;8.50;;;24.10;38.60;;;;;;4980371;28;46454;-69
2022/08/26 07:51:42;;;;;;;13.73;8.00;;;;;;;;;;4979104;28;46600;-70
2022/08/26 07:54:08;;;;;;;17.53;9.20;;;24.40;36.60;;;;;;4981686;28;46367;-67
2022/08/26 07:56:34;;;;;;;19.10;9.40;;;;;;;;;;4980059;28;46594;-69
2022/08/26 07:59:00;;;;;;;17.73;8.40;;;24.90;35.50;;;;;;4985004;28;46674;-69
2022/08/26 08:01:27;;;;;;;15.10;8.10;;;;;;;;;;4979038;28;46402;-68
2022/08/26 08:03:54;;;;;;;16.53;8.60;;;25.40;33.90;;;;;;4979608;28;46388;-68
2022/08/26 08:06:22;;;;;;;16.17;8.67;;;25.40;33.20;;;;;;4979768;28;46575;-69
2022/08/26 08:08:48;;;;;;;19.07;9.13;;;25.30;33.80;;;;;;4979917;28;46436;-70
2022/08/26 08:11:13;;;;;;;21.60;9.33;;;25.30;33.80;;;;;;4979788;28;46430;-70
2022/08/26 08:13:39;;;;;;;11.80;8.60;;;25.30;33.70;;;;;;4980109;28;46377;-69
2022/08/26 08:16:06;;;;;;;19.00;8.80;;;25.50;34.60;;;;;;4981073;28;46452;-69
2022/08/26 08:18:32;;;;;;;20.33;10.50;;;25.20;35.30;;;;;;4980027;28;46722;-70
2022/08/26 08:21:00;;;;;;;16.93;9.70;;;25.30;33.60;;;;;;4979536;28;46357;-70
2022/08/26 08:23:26;;;;;;;15.90;9.10;;;25.10;34.60;;;;;;4979680;28;45865;-70
2022/08/26 08:26:06;;;;;;;14.47;8.60;;;25.30;33.70;;;;;;4979014;28;46393;-70
2022/08/26 08:28:33;;;;;;;13.97;9.27;;;;;;;;;;4979659;28;46863;-69
2022/08/26 08:30:59;;;;;;;13.13;8.10;;;25.50;34.60;;;;;;4978245;28;46348;-71
2022/08/26 08:33:24;;;;;;;17.80;9.67;;;25.60;34.10;;;;;;4977955;28;46645;-68
2022/08/26 08:35:51;;;;;;;16.43;8.83;;;25.90;32.00;;;;;;4979030;28;45891;-69
2022/08/26 08:38:17;;;;;;;22.87;9.03;;;;;;;;;;4978930;28;46808;-69
2022/08/26 08:40:44;;;;;;;18.63;8.47;;;26.20;33.50;;;;;;4978191;28;45876;-69
2022/08/26 08:43:21;;;;;;;15.80;8.37;;;25.90;32.20;;;;;;4979941;28;46731;-68
2022/08/26 08:45:56;;;;;;;12.87;7.60;;;26.30;32.00;;;;;;4977109;28;46342;-72
2022/08/26 08:48:32;;;;;;;15.90;8.67;;;26.40;30.30;;;;;;4978491;28;46984;-70
2022/08/26 08:51:25;;;;;;;15.33;8.90;;;26.10;31.80;;;;;;4978286;28;46419;-70
2022/08/26 08:53:54;;;;;;;14.67;8.07;;;26.40;29.90;;;;;;4978999;28;46365;-69
2022/08/26 08:56:32;;;;;;;14.27;8.80;;;26.50;29.60;;;;;;4978574;28;46507;-67
2022/08/26 08:59:18;;;;;;;15.23;7.80;;;26.50;29.50;;;;;;4979637;28;46461;-69
2022/08/26 09:02:04;;;;;;;19.97;8.53;;;26.50;29.80;;;;;;4979051;28;46573;-69
2022/08/26 09:04:38;;;;;;;24.57;9.27;;;26.70;29.30;;;;;;4977477;28;46604;-69
2022/08/26 09:07:10;;;;;;;18.63;8.93;;;27.00;28.50;;;;;;4979152;28;46476;-69
2022/08/26 09:09:44;;;;;;;17.90;8.83;;;26.90;29.20;;;;;;4979769;28;46430;-70
2022/08/26 09:12:19;;;;;;;17.70;8.83;;;26.90;28.80;;;;;;4984854;28;46627;-70
2022/08/26 09:14:47;;;;;;;21.00;9.87;;;27.10;27.70;;;;;;4979345;28;46447;-69
2022/08/26 09:17:47;;;;;;;19.90;10.13;;;27.30;27.60;;;;;;4977325;28;46407;-69
2022/08/26 09:20:22;;;;;;;17.80;9.13;;;27.10;28.30;;;;;;4978373;28;46051;-71
2022/08/26 09:22:47;;;;;;;20.93;11.00;;;27.20;27.40;;;;;;4977040;28;46689;-69
2022/08/26 09:25:14;;;;;;;21.37;10.17;;;26.90;28.30;;;;;;4978750;28;46396;-69
2022/08/26 09:27:52;;;;;;;23.90;10.27;;;27.30;28.70;;;;;;4979120;28;46490;-70
2022/08/26 09:30:28;;;;;;;21.47;9.80;;;27.10;28.00;;;;;;4977526;28;46471;-69
2022/08/26 09:33:17;;;;;;;18.83;9.40;;;27.20;27.40;;;;;;4978750;28;46480;-68
2022/08/26 09:35:47;;;;;;;28.50;9.17;;;27.40;27.80;;;;;;4978473;28;46455;-68
2022/08/26 09:38:31;;;;;;;20.43;9.23;;;27.50;26.80;;;;;;4980221;28;46623;-69
2022/08/26 09:41:05;;;;;;;20.30;9.10;;;27.60;26.50;;;;;;4981454;28;47021;-71
2022/08/26 09:43:32;;;;;;;26.63;8.80;;;;;;;;;;4982273;28;46424;-70
2022/08/26 09:46:17;;;;;;;18.20;8.43;;;28.30;26.40;;;;;;4980591;28;46364;-69
2022/08/26 09:48:43;;;;;;;25.20;8.80;;;28.30;25.20;;;;;;4991885;28;46403;-70
2022/08/26 09:51:23;;;;;;;16.73;8.10;;;28.60;24.90;;;;;;4981364;28;47347;-68
2022/08/26 09:54:01;;;;;;;20.00;8.50;;;29.00;24.50;;;;;;4980447;28;46407;-69
2022/08/26 09:56:32;;;;;;;17.73;7.87;;;28.90;23.80;;;;;;4980520;28;46849;-70
2022/08/26 09:58:59;;;;;;;22.47;9.30;;;29.00;24.10;;;;;;4980731;28;46364;-69
2022/08/26 10:01:38;;;;;;;21.53;7.50;;;29.00;23.60;;;;;;4979151;28;48404;-69
2022/08/26 10:04:24;;;;;;;27.70;7.90;;;29.30;24.10;;;;;;4980656;28;46360;-68
2022/08/26 10:07:06;;;;;;;22.43;8.67;;;29.30;22.90;;;;;;4979912;28;46467;-69
2022/08/26 10:09:39;;;;;;;19.30;7.90;;;29.10;22.70;;;;;;4981982;28;45862;-70
2022/08/26 10:12:14;;;;;;;14.77;7.53;;;29.20;22.50;;;;;;4979968;28;47198;-69
2022/08/26 10:14:48;;;;;;;18.43;8.00;;;29.20;23.10;;;;;;4981592;28;46535;-70
2022/08/26 10:17:14;;;;;;;16.73;7.87;;;;;;;;;;4980435;28;46474;-69
2022/08/26 10:19:53;;;;;;;19.37;7.30;;;29.50;22.70;;;;;;4982535;28;46496;-68
2022/08/26 10:22:31;;;;;;;14.87;7.67;;;29.30;22.20;;;;;;4979689;28;46696;-69
2022/08/26 10:25:00;;;;;;;19.60;7.40;;;29.20;21.90;;;;;;4979694;28;46642;-71
2022/08/26 10:27:40;;;;;;;18.10;8.13;;;29.20;21.90;;;;;;4981011;28;46495;-68
2022/08/26 10:30:10;;;;;;;16.87;8.10;;;29.30;21.50;;;;;;4980252;28;46434;-69
2022/08/26 10:32:41;;;;;;;14.67;8.10;;;29.50;21.10;;;;;;4979056;28;46432;-72
2022/08/26 10:35:11;;;;;;;20.50;8.10;;;29.70;21.10;;;;;;4981848;28;46109;-70
2022/08/26 10:37:40;;;;;;;19.73;7.43;;;30.20;20.70;;;;;;4981467;28;46443;-69
2022/08/26 10:40:14;;;;;;;13.63;7.70;;;30.00;20.10;;;;;;4982011;28;46660;-69
2022/08/26 10:42:45;;;;;;;17.60;6.80;;;30.20;20.10;;;;;;4980039;28;47329;-68
2022/08/26 10:45:18;;;;;;;17.77;6.50;;;30.40;19.80;;;;;;4981910;28;46867;-69
2022/08/26 10:48:00;;;;;;;13.13;6.70;;;30.40;19.30;;;;;;4980104;28;45869;-71
2022/08/26 10:50:35;;;;;;;21.50;7.40;;;30.60;18.60;;;;;;4980247;28;46491;-69
2022/08/26 10:53:26;;;;;;;12.97;6.43;;;30.50;18.70;;;;;;4983153;28;46228;-68
2022/08/26 10:56:06;;;;;;;18.33;6.60;;;30.90;18.20;;;;;;4983391;28;46403;-69
2022/08/26 10:58:48;;;;;;;13.40;5.90;;;31.00;17.30;;;;;;4981809;28;46379;-69
2022/08/26 11:04:24;;;;;;;18.10;6.70;;;31.40;16.60;;;;;;4978645;28;45978;-70
2022/08/26 11:07:27;;;;;;;16.33;6.20;;;31.50;15.70;;;;;;4980676;28;46436;-68
2022/08/26 11:09:53;;;;;;;15.33;6.00;;;31.80;15.20;;;;;;4978726;28;46406;-69
2022/08/26 11:12:53;;;;;;;15.07;5.67;;;31.60;15.30;;;;;;4979432;28;46631;-70
2022/08/26 11:15:19;;;;;;;17.10;5.90;;;31.70;14.60;;;;;;4978990;28;47883;-69
2022/08/26 11:17:45;;;;;;;17.77;5.20;;;;;;;;;;4981933;28;46345;-70
2022/08/26 11:20:35;;;;;;;9.73;5.10;;;31.50;13.70;;;;;;4981584;28;46329;-70
2022/08/26 11:23:21;;;;;;;19.73;5.90;;;31.60;13.00;;;;;;4982887;28;46473;-68
2022/08/26 11:26:09;;;;;;;12.07;5.83;;;31.70;12.70;;;;;;4980578;28;46475;-71
2022/08/26 11:28:48;;;;;;;17.90;5.30;;;31.80;12.90;;;;;;4979300;28;46431;-69
2022/08/26 11:31:24;;;;;;;17.30;5.03;;;31.80;12.90;;;;;;4981210;28;46430;-68
2022/08/26 11:33:50;;;;;;;8.20;4.93;;;;;;;;;;4977802;28;46585;-69
2022/08/26 11:36:44;;;;;;;10.47;5.30;;;32.10;11.70;;;;;;4981835;28;46525;-70
2022/08/26 11:39:23;;;;;;;15.90;5.33;;;32.10;12.00;;;;;;4978724;28;46363;-68
2022/08/26 11:41:51;;;;;;;22.03;6.10;;;32.00;12.20;;;;;;4980238;28;46547;-68
2022/08/26 11:44:21;;;;;;;10.60;5.37;;;31.80;12.30;;;;;;4978473;28;46591;-70
2022/08/26 11:47:00;;;;;;;10.53;4.90;;;31.50;12.50;;;;;;4978492;28;46927;-68
2022/08/26 11:49:27;;;;;;;17.10;5.30;;;31.40;12.60;;;;;;4978144;28;46702;-68
2022/08/26 11:52:18;;;;;;;11.20;4.80;;;31.20;12.80;;;;;;4977396;28;46434;-69
2022/08/26 11:55:13;;;;;;;10.13;4.80;;;30.90;12.80;;;;;;4978099;28;46577;-66
2022/08/26 11:57:50;;;;;;;9.50;4.60;;;30.80;13.90;;;;;;4973554;28;46456;-70
2022/08/26 12:00:29;;;;;;;11.33;5.30;;;30.60;13.40;;;;;;4974814;28;45773;-68
2022/08/26 12:02:57;;;;;;;10.67;4.80;;;30.60;13.30;;;;;;4977598;28;46592;-67
2022/08/26 12:05:33;;;;;;;10.10;4.90;;;30.70;13.90;;;;;;4982518;28;46726;-67
2022/08/26 12:08:08;;;;;;;11.10;5.23;;;31.10;13.40;;;;;;4976876;28;47504;-67
2022/08/26 12:10:34;;;;;;;11.60;5.30;;;;;;;;;;4989316;28;46226;-66
2022/08/26 12:13:02;;;;;;;11.93;5.83;;;31.30;12.80;;;;;;4986204;28;46391;-65
2022/08/26 12:15:31;;;;;;;10.00;5.00;;;31.50;13.30;;;;;;4978129;28;46469;-67
2022/08/26 12:17:59;;;;;;;7.40;4.37;;;31.50;12.70;;;;;;4978426;28;46551;-65
2022/08/26 12:20:45;;;;;;;8.23;3.90;;;31.40;11.40;;;;;;4978754;28;46852;-65
2022/08/26 12:23:21;;;;;;;9.63;4.30;;;31.10;11.60;;;;;;4975419;28;46507;-68
2022/08/26 12:25:49;;;;;;;7.73;3.30;;;31.00;11.40;;;;;;4966241;28;46430;-69
2022/08/26 12:28:15;;;;;;;12.70;4.23;;;30.80;11.20;;;;;;4978364;28;46707;-70
2022/08/26 12:30:41;;;;;;;10.00;4.53;;;;;;;;;;4976890;28;46519;-68
2022/08/26 12:33:12;;;;;;;7.50;4.17;;;30.30;11.90;;;;;;4978593;28;46981;-69
2022/08/26 12:35:39;;;;;;;7.73;4.00;;;30.30;11.60;;;;;;4976466;28;46478;-68
2022/08/26 12:38:07;;;;;;;8.70;4.20;;;30.60;11.50;;;;;;4977494;28;46612;-69
2022/08/26 12:40:42;;;;;;;11.30;4.80;;;30.50;11.10;;;;;;4979294;28;46351;-68
2022/08/26 12:43:09;;;;;;;12.00;4.40;;;30.40;10.80;;;;;;4991845;28;46425;-68
2022/08/26 12:45:54;;;;;;;9.53;4.37;;;30.20;11.30;;;;;;4976911;28;46450;-68
2022/08/26 12:48:37;;;;;;;8.83;4.40;;;30.20;12.30;;;;;;4976456;28;46430;-70
2022/08/26 12:51:07;;;;;;;11.30;4.87;;;30.20;11.80;;;;;;4990787;28;46660;-69
2022/08/26 12:53:40;;;;;;;11.53;5.27;;;30.20;12.00;;;;;;4978044;28;46375;-69
2022/08/26 12:56:38;;;;;;;9.20;4.77;;;30.20;12.00;;;;;;4979578;28;46478;-70
2022/08/26 12:59:25;;;;;;;20.50;4.93;;;30.40;12.00;;;;;;4977441;28;46582;-70
2022/08/26 13:01:52;;;;;;;11.50;5.10;;;30.30;11.80;;;;;;4978086;28;46438;-68
2022/08/26 13:04:31;;;;;;;11.47;4.77;;;30.20;11.70;;;;;;4975898;28;46147;-70
2022/08/26 13:07:12;;;;;;;14.57;5.00;;;30.10;11.70;;;;;;4977756;28;46301;-70
2022/08/26 13:09:37;;;;;;;8.50;4.70;;;30.00;11.90;;;;;;4978615;28;46437;-69
2022/08/26 13:12:03;;;;;;;12.67;4.60;;;30.10;11.90;;;;;;4977860;28;46343;-71
2022/08/26 13:14:29;;;;;;;9.43;5.67;;;;;;;;;;4980590;28;46412;-70